sensor_id;sensor_type;location;lat;lon;timestamp;P1;durP1;ratioP1;P2;durP2;ratioP2
9473;SDS011;8865;47.636;7.692;2024-02-14T00:00:40;3.80;;;2.77;;
9473;SDS011;8865;47.636;7.692;2024-02-14T00:03:06;4.97;;;2.70;;
9473;SDS011;8865;47.636;7.692;2024-02-14T00:05:32;2.90;;;2.20;;
9473;SDS011;8865;47.636;7.692;2024-02-14T00:07:59;3.80;;;2.43;;
9473;SDS011;8865;47.636;7.692;2024-02-14T00:10:25;5.97;;;2.20;;
9473;SDS011;8865;47.636;7.692;2024-02-14T00:12:51;6.17;;;2.90;;
9473;SDS011;8865;47.636;7.692;2024-02-14T00:15:17;4.17;;;2.70;;
9473;SDS011;8865;47.636;7.692;2024-02-14T00:17:43;5.33;;;2.80;;
9473;SDS011;8865;47.636;7.692;2024-02-14T00:20:09;3.43;;;2.47;;
9473;SDS011;8865;47.636;7.692;2024-02-14T00:22:38;3.40;;;2.43;;
9473;SDS011;8865;47.636;7.692;2024-02-14T00:25:05;6.63;;;2.80;;
9473;SDS011;8865;47.636;7.692;2024-02-14T00:27:31;4.60;;;2.83;;
9473;SDS011;8865;47.636;7.692;2024-02-14T00:29:57;4.50;;;2.90;;
9473;SDS011;8865;47.636;7.692;2024-02-14T00:32:23;5.67;;;2.93;;
9473;SDS011;8865;47.636;7.692;2024-02-14T00:34:49;4.30;;;2.67;;
9473;SDS011;8865;47.636;7.692;2024-02-14T00:37:15;5.83;;;2.70;;
9473;SDS011;8865;47.636;7.692;2024-02-14T00:39:41;3.67;;;2.37;;
9473;SDS011;8865;47.636;7.692;2024-02-14T00:42:08;6.03;;;2.47;;
9473;SDS011;8865;47.636;7.692;2024-02-14T00:44:34;3.53;;;2.43;;
9473;SDS011;8865;47.636;7.692;2024-02-14T00:47:00;5.07;;;2.87;;
9473;SDS011;8865;47.636;7.692;2024-02-14T00:49:28;4.73;;;2.43;;
9473;SDS011;8865;47.636;7.692;2024-02-14T00:51:54;3.17;;;2.30;;
9473;SDS011;8865;47.636;7.692;2024-02-14T00:54:20;5.20;;;2.50;;
9473;SDS011;8865;47.636;7.692;2024-02-14T00:56:47;3.63;;;2.57;;
9473;SDS011;8865;47.636;7.692;2024-02-14T00:59:13;3.37;;;2.30;;
9473;SDS011;8865;47.636;7.692;2024-02-14T01:01:39;4.17;;;2.40;;
9473;SDS011;8865;47.636;7.692;2024-02-14T01:04:05;5.93;;;2.87;;
9473;SDS011;8865;47.636;7.692;2024-02-14T01:06:31;3.57;;;2.57;;
9473;SDS011;8865;47.636;7.692;2024-02-14T01:08:57;4.70;;;2.53;;
9473;SDS011;8865;47.636;7.692;2024-02-14T01:11:23;4.57;;;2.27;;
9473;SDS011;8865;47.636;7.692;2024-02-14T01:13:49;3.60;;;2.80;;
9473;SDS011;8865;47.636;7.692;2024-02-14T01:16:15;4.47;;;2.60;;
9473;SDS011;8865;47.636;7.692;2024-02-14T01:18:41;5.63;;;3.03;;
9473;SDS011;8865;47.636;7.692;2024-02-14T01:21:07;5.50;;;2.97;;
9473;SDS011;8865;47.636;7.692;2024-02-14T01:23:33;3.87;;;2.63;;
9473;SDS011;8865;47.636;7.692;2024-02-14T01:25:59;3.97;;;2.73;;
9473;SDS011;8865;47.636;7.692;2024-02-14T01:28:25;3.90;;;2.57;;
9473;SDS011;8865;47.636;7.692;2024-02-14T01:30:51;5.37;;;2.90;;
9473;SDS011;8865;47.636;7.692;2024-02-14T01:33:17;5.77;;;2.93;;
9473;SDS011;8865;47.636;7.692;2024-02-14T01:35:43;4.70;;;2.67;;
9473;SDS011;8865;47.636;7.692;2024-02-14T01:38:09;6.30;;;2.40;;
9473;SDS011;8865;47.636;7.692;2024-02-14T01:40:37;3.40;;;2.57;;
9473;SDS011;8865;47.636;7.692;2024-02-14T01:43:04;3.70;;;2.40;;
9473;SDS011;8865;47.636;7.692;2024-02-14T01:45:30;4.80;;;2.47;;
9473;SDS011;8865;47.636;7.692;2024-02-14T01:47:56;4.63;;;2.30;;
9473;SDS011;8865;47.636;7.692;2024-02-14T01:50:22;3.97;;;2.40;;
9473;SDS011;8865;47.636;7.692;2024-02-14T01:52:54;4.20;;;2.53;;
9473;SDS011;8865;47.636;7.692;2024-02-14T01:55:23;3.60;;;2.30;;
9473;SDS011;8865;47.636;7.692;2024-02-14T01:57:49;3.70;;;2.20;;
9473;SDS011;8865;47.636;7.692;2024-02-14T02:00:15;3.27;;;2.17;;
9473;SDS011;8865;47.636;7.692;2024-02-14T02:02:43;7.83;;;2.40;;
9473;SDS011;8865;47.636;7.692;2024-02-14T02:05:09;5.63;;;2.50;;
9473;SDS011;8865;47.636;7.692;2024-02-14T02:07:35;5.37;;;2.60;;
9473;SDS011;8865;47.636;7.692;2024-02-14T02:10:05;3.87;;;2.00;;
9473;SDS011;8865;47.636;7.692;2024-02-14T02:12:31;3.63;;;2.23;;
9473;SDS011;8865;47.636;7.692;2024-02-14T02:14:58;3.00;;;2.20;;
9473;SDS011;8865;47.636;7.692;2024-02-14T02:17:24;3.03;;;2.10;;
9473;SDS011;8865;47.636;7.692;2024-02-14T02:19:54;2.33;;;2.03;;
9473;SDS011;8865;47.636;7.692;2024-02-14T02:22:20;3.70;;;2.20;;
9473;SDS011;8865;47.636;7.692;2024-02-14T02:24:46;4.30;;;2.30;;
9473;SDS011;8865;47.636;7.692;2024-02-14T02:27:13;4.07;;;2.10;;
9473;SDS011;8865;47.636;7.692;2024-02-14T02:29:41;2.93;;;2.07;;
9473;SDS011;8865;47.636;7.692;2024-02-14T02:32:08;3.87;;;2.30;;
9473;SDS011;8865;47.636;7.692;2024-02-14T02:34:35;3.37;;;2.30;;
9473;SDS011;8865;47.636;7.692;2024-02-14T02:37:05;3.57;;;2.10;;
9473;SDS011;8865;47.636;7.692;2024-02-14T02:39:33;4.07;;;2.50;;
9473;SDS011;8865;47.636;7.692;2024-02-14T02:42:01;2.80;;;2.20;;
9473;SDS011;8865;47.636;7.692;2024-02-14T02:44:28;3.20;;;2.00;;
9473;SDS011;8865;47.636;7.692;2024-02-14T02:46:54;3.03;;;2.20;;
9473;SDS011;8865;47.636;7.692;2024-02-14T02:49:21;2.10;;;1.87;;
9473;SDS011;8865;47.636;7.692;2024-02-14T02:51:47;3.37;;;2.27;;
9473;SDS011;8865;47.636;7.692;2024-02-14T02:54:14;5.20;;;2.30;;
9473;SDS011;8865;47.636;7.692;2024-02-14T02:56:40;3.27;;;1.83;;
9473;SDS011;8865;47.636;7.692;2024-02-14T02:59:09;3.87;;;1.90;;
9473;SDS011;8865;47.636;7.692;2024-02-14T03:01:35;4.53;;;2.40;;
9473;SDS011;8865;47.636;7.692;2024-02-14T03:04:02;4.13;;;2.20;;
9473;SDS011;8865;47.636;7.692;2024-02-14T03:06:28;4.00;;;2.10;;
9473;SDS011;8865;47.636;7.692;2024-02-14T03:08:54;3.90;;;2.13;;
9473;SDS011;8865;47.636;7.692;2024-02-14T03:11:22;3.37;;;2.23;;
9473;SDS011;8865;47.636;7.692;2024-02-14T03:13:49;4.00;;;1.97;;
9473;SDS011;8865;47.636;7.692;2024-02-14T03:16:15;3.63;;;2.10;;
9473;SDS011;8865;47.636;7.692;2024-02-14T03:18:43;3.40;;;1.93;;
9473;SDS011;8865;47.636;7.692;2024-02-14T03:21:10;4.00;;;2.23;;
9473;SDS011;8865;47.636;7.692;2024-02-14T03:23:37;3.37;;;1.90;;
9473;SDS011;8865;47.636;7.692;2024-02-14T03:26:05;2.77;;;2.10;;
9473;SDS011;8865;47.636;7.692;2024-02-14T03:28:33;3.33;;;2.07;;
9473;SDS011;8865;47.636;7.692;2024-02-14T03:30:59;3.07;;;1.70;;
9473;SDS011;8865;47.636;7.692;2024-02-14T03:33:25;3.23;;;1.77;;
9473;SDS011;8865;47.636;7.692;2024-02-14T03:35:51;4.60;;;2.10;;
9473;SDS011;8865;47.636;7.692;2024-02-14T03:38:27;4.03;;;2.10;;
9473;SDS011;8865;47.636;7.692;2024-02-14T03:40:53;2.37;;;1.80;;
9473;SDS011;8865;47.636;7.692;2024-02-14T03:43:20;4.20;;;2.20;;
9473;SDS011;8865;47.636;7.692;2024-02-14T03:45:47;3.17;;;2.10;;
9473;SDS011;8865;47.636;7.692;2024-02-14T03:48:13;5.80;;;1.97;;
9473;SDS011;8865;47.636;7.692;2024-02-14T03:50:39;4.00;;;1.90;;
9473;SDS011;8865;47.636;7.692;2024-02-14T03:53:05;3.37;;;1.90;;
9473;SDS011;8865;47.636;7.692;2024-02-14T03:55:31;5.20;;;1.90;;
9473;SDS011;8865;47.636;7.692;2024-02-14T03:57:57;2.97;;;1.67;;
9473;SDS011;8865;47.636;7.692;2024-02-14T04:00:24;3.13;;;1.70;;
9473;SDS011;8865;47.636;7.692;2024-02-14T04:02:50;2.97;;;1.80;;
9473;SDS011;8865;47.636;7.692;2024-02-14T04:05:19;2.83;;;1.80;;
9473;SDS011;8865;47.636;7.692;2024-02-14T04:07:45;5.03;;;2.07;;
9473;SDS011;8865;47.636;7.692;2024-02-14T04:10:17;1.80;;;1.70;;
9473;SDS011;8865;47.636;7.692;2024-02-14T04:12:43;2.33;;;1.80;;
9473;SDS011;8865;47.636;7.692;2024-02-14T04:15:09;3.87;;;2.00;;
9473;SDS011;8865;47.636;7.692;2024-02-14T04:17:35;4.83;;;2.20;;
9473;SDS011;8865;47.636;7.692;2024-02-14T04:20:02;4.93;;;1.83;;
9473;SDS011;8865;47.636;7.692;2024-02-14T04:22:28;3.20;;;2.10;;
9473;SDS011;8865;47.636;7.692;2024-02-14T04:24:54;3.77;;;2.20;;
9473;SDS011;8865;47.636;7.692;2024-02-14T04:27:21;4.03;;;1.80;;
9473;SDS011;8865;47.636;7.692;2024-02-14T04:29:47;2.40;;;2.00;;
9473;SDS011;8865;47.636;7.692;2024-02-14T04:32:14;3.20;;;1.83;;
9473;SDS011;8865;47.636;7.692;2024-02-14T04:34:40;2.50;;;1.83;;
9473;SDS011;8865;47.636;7.692;2024-02-14T04:37:07;2.37;;;1.70;;
9473;SDS011;8865;47.636;7.692;2024-02-14T04:39:38;4.50;;;2.00;;
9473;SDS011;8865;47.636;7.692;2024-02-14T04:42:04;4.47;;;2.07;;
9473;SDS011;8865;47.636;7.692;2024-02-14T04:44:33;3.80;;;2.00;;
9473;SDS011;8865;47.636;7.692;2024-02-14T04:47:00;2.50;;;2.00;;
9473;SDS011;8865;47.636;7.692;2024-02-14T04:49:29;3.90;;;2.47;;
9473;SDS011;8865;47.636;7.692;2024-02-14T04:51:55;3.80;;;1.90;;
9473;SDS011;8865;47.636;7.692;2024-02-14T04:54:21;4.70;;;2.20;;
9473;SDS011;8865;47.636;7.692;2024-02-14T04:56:47;2.73;;;2.00;;
9473;SDS011;8865;47.636;7.692;2024-02-14T04:59:13;4.03;;;2.00;;
9473;SDS011;8865;47.636;7.692;2024-02-14T05:01:39;3.77;;;2.10;;
9473;SDS011;8865;47.636;7.692;2024-02-14T05:04:06;2.67;;;2.00;;
9473;SDS011;8865;47.636;7.692;2024-02-14T05:06:33;5.37;;;2.13;;
9473;SDS011;8865;47.636;7.692;2024-02-14T05:08:59;3.93;;;2.10;;
9473;SDS011;8865;47.636;7.692;2024-02-14T05:11:25;4.87;;;2.40;;
9473;SDS011;8865;47.636;7.692;2024-02-14T05:13:51;6.53;;;2.30;;
9473;SDS011;8865;47.636;7.692;2024-02-14T05:16:20;3.50;;;2.13;;
9473;SDS011;8865;47.636;7.692;2024-02-14T05:18:46;4.27;;;2.43;;
9473;SDS011;8865;47.636;7.692;2024-02-14T05:21:13;4.13;;;1.93;;
9473;SDS011;8865;47.636;7.692;2024-02-14T05:23:39;2.57;;;1.70;;
9473;SDS011;8865;47.636;7.692;2024-02-14T05:26:05;2.67;;;1.83;;
9473;SDS011;8865;47.636;7.692;2024-02-14T05:28:32;4.33;;;2.00;;
9473;SDS011;8865;47.636;7.692;2024-02-14T05:31:01;3.47;;;2.20;;
9473;SDS011;8865;47.636;7.692;2024-02-14T05:33:28;6.80;;;5.00;;
9473;SDS011;8865;47.636;7.692;2024-02-14T05:35:54;6.30;;;4.60;;
9473;SDS011;8865;47.636;7.692;2024-02-14T05:38:20;2.97;;;2.07;;
9473;SDS011;8865;47.636;7.692;2024-02-14T05:40:47;4.33;;;2.17;;
9473;SDS011;8865;47.636;7.692;2024-02-14T05:43:14;3.50;;;2.10;;
9473;SDS011;8865;47.636;7.692;2024-02-14T05:45:40;4.50;;;2.60;;
9473;SDS011;8865;47.636;7.692;2024-02-14T05:48:07;5.13;;;2.37;;
9473;SDS011;8865;47.636;7.692;2024-02-14T05:50:34;3.53;;;2.43;;
9473;SDS011;8865;47.636;7.692;2024-02-14T05:53:00;5.07;;;2.27;;
9473;SDS011;8865;47.636;7.692;2024-02-14T05:55:28;4.67;;;2.30;;
9473;SDS011;8865;47.636;7.692;2024-02-14T05:57:54;2.53;;;2.10;;
9473;SDS011;8865;47.636;7.692;2024-02-14T06:00:20;3.47;;;2.00;;
9473;SDS011;8865;47.636;7.692;2024-02-14T06:02:49;3.20;;;2.03;;
9473;SDS011;8865;47.636;7.692;2024-02-14T06:05:16;3.50;;;1.90;;
9473;SDS011;8865;47.636;7.692;2024-02-14T06:07:42;3.50;;;2.20;;
9473;SDS011;8865;47.636;7.692;2024-02-14T06:10:10;3.40;;;2.00;;
9473;SDS011;8865;47.636;7.692;2024-02-14T06:12:37;2.67;;;2.00;;
9473;SDS011;8865;47.636;7.692;2024-02-14T06:15:06;3.70;;;2.00;;
9473;SDS011;8865;47.636;7.692;2024-02-14T06:17:33;5.30;;;2.23;;
9473;SDS011;8865;47.636;7.692;2024-02-14T06:19:59;4.33;;;2.20;;
9473;SDS011;8865;47.636;7.692;2024-02-14T06:22:31;3.60;;;2.20;;
9473;SDS011;8865;47.636;7.692;2024-02-14T06:25:01;2.93;;;1.90;;
9473;SDS011;8865;47.636;7.692;2024-02-14T06:27:30;3.37;;;2.17;;
9473;SDS011;8865;47.636;7.692;2024-02-14T06:29:58;2.93;;;2.27;;
9473;SDS011;8865;47.636;7.692;2024-02-14T06:32:25;4.20;;;2.13;;
9473;SDS011;8865;47.636;7.692;2024-02-14T06:34:51;3.23;;;1.90;;
9473;SDS011;8865;47.636;7.692;2024-02-14T06:37:17;4.20;;;2.30;;
9473;SDS011;8865;47.636;7.692;2024-02-14T06:39:43;4.37;;;2.00;;
9473;SDS011;8865;47.636;7.692;2024-02-14T06:42:09;4.90;;;2.10;;
9473;SDS011;8865;47.636;7.692;2024-02-14T06:44:35;4.07;;;2.20;;
9473;SDS011;8865;47.636;7.692;2024-02-14T06:47:01;5.37;;;2.30;;
9473;SDS011;8865;47.636;7.692;2024-02-14T06:49:27;4.47;;;2.00;;
9473;SDS011;8865;47.636;7.692;2024-02-14T06:51:54;3.80;;;2.10;;
9473;SDS011;8865;47.636;7.692;2024-02-14T06:54:20;4.20;;;2.23;;
9473;SDS011;8865;47.636;7.692;2024-02-14T06:56:46;4.63;;;2.10;;
9473;SDS011;8865;47.636;7.692;2024-02-14T06:59:12;4.03;;;2.20;;
9473;SDS011;8865;47.636;7.692;2024-02-14T07:01:38;5.40;;;2.57;;
9473;SDS011;8865;47.636;7.692;2024-02-14T07:04:04;4.27;;;2.70;;
9473;SDS011;8865;47.636;7.692;2024-02-14T07:06:30;4.03;;;2.30;;
9473;SDS011;8865;47.636;7.692;2024-02-14T07:08:56;4.63;;;3.37;;
9473;SDS011;8865;47.636;7.692;2024-02-14T07:11:22;4.83;;;2.30;;
9473;SDS011;8865;47.636;7.692;2024-02-14T07:13:49;4.27;;;2.37;;
9473;SDS011;8865;47.636;7.692;2024-02-14T07:16:15;4.00;;;2.63;;
9473;SDS011;8865;47.636;7.692;2024-02-14T07:18:41;4.20;;;2.50;;
9473;SDS011;8865;47.636;7.692;2024-02-14T07:21:07;4.37;;;2.80;;
9473;SDS011;8865;47.636;7.692;2024-02-14T07:23:33;3.70;;;2.50;;
9473;SDS011;8865;47.636;7.692;2024-02-14T07:26:00;4.30;;;2.80;;
9473;SDS011;8865;47.636;7.692;2024-02-14T07:28:28;4.37;;;2.73;;
9473;SDS011;8865;47.636;7.692;2024-02-14T07:30:54;4.67;;;3.30;;
9473;SDS011;8865;47.636;7.692;2024-02-14T07:33:21;7.13;;;3.87;;
9473;SDS011;8865;47.636;7.692;2024-02-14T07:35:47;5.47;;;3.53;;
9473;SDS011;8865;47.636;7.692;2024-02-14T07:38:14;4.63;;;3.00;;
9473;SDS011;8865;47.636;7.692;2024-02-14T07:40:40;3.87;;;2.57;;
9473;SDS011;8865;47.636;7.692;2024-02-14T07:43:07;5.50;;;2.70;;
9473;SDS011;8865;47.636;7.692;2024-02-14T07:45:33;5.03;;;2.80;;
9473;SDS011;8865;47.636;7.692;2024-02-14T07:47:59;7.90;;;2.50;;
9473;SDS011;8865;47.636;7.692;2024-02-14T07:50:25;3.43;;;2.67;;
9473;SDS011;8865;47.636;7.692;2024-02-14T07:52:53;4.00;;;2.47;;
9473;SDS011;8865;47.636;7.692;2024-02-14T07:55:19;5.43;;;2.73;;
9473;SDS011;8865;47.636;7.692;2024-02-14T07:57:45;4.83;;;3.20;;
9473;SDS011;8865;47.636;7.692;2024-02-14T08:00:12;6.40;;;3.80;;
9473;SDS011;8865;47.636;7.692;2024-02-14T08:02:44;5.87;;;3.33;;
9473;SDS011;8865;47.636;7.692;2024-02-14T08:05:10;8.70;;;3.47;;
9473;SDS011;8865;47.636;7.692;2024-02-14T08:07:36;8.17;;;4.03;;
9473;SDS011;8865;47.636;7.692;2024-02-14T08:10:02;5.30;;;3.20;;
9473;SDS011;8865;47.636;7.692;2024-02-14T08:12:28;7.60;;;3.33;;
9473;SDS011;8865;47.636;7.692;2024-02-14T08:14:54;6.37;;;3.40;;
9473;SDS011;8865;47.636;7.692;2024-02-14T08:17:20;4.93;;;2.73;;
9473;SDS011;8865;47.636;7.692;2024-02-14T08:19:46;8.37;;;5.80;;
9473;SDS011;8865;47.636;7.692;2024-02-14T08:22:13;5.53;;;4.10;;
9473;SDS011;8865;47.636;7.692;2024-02-14T08:24:39;7.37;;;4.13;;
9473;SDS011;8865;47.636;7.692;2024-02-14T08:27:05;6.13;;;3.53;;
9473;SDS011;8865;47.636;7.692;2024-02-14T08:29:32;7.87;;;3.57;;
9473;SDS011;8865;47.636;7.692;2024-02-14T08:31:58;3.97;;;3.33;;
9473;SDS011;8865;47.636;7.692;2024-02-14T08:34:24;6.63;;;3.53;;
9473;SDS011;8865;47.636;7.692;2024-02-14T08:36:50;5.27;;;3.23;;
9473;SDS011;8865;47.636;7.692;2024-02-14T08:39:16;4.37;;;3.23;;
9473;SDS011;8865;47.636;7.692;2024-02-14T08:41:43;5.73;;;3.17;;
9473;SDS011;8865;47.636;7.692;2024-02-14T08:44:10;5.00;;;3.37;;
9473;SDS011;8865;47.636;7.692;2024-02-14T08:46:36;4.27;;;3.10;;
9473;SDS011;8865;47.636;7.692;2024-02-14T08:49:02;4.77;;;3.70;;
9473;SDS011;8865;47.636;7.692;2024-02-14T08:51:34;5.90;;;3.53;;
9473;SDS011;8865;47.636;7.692;2024-02-14T08:54:03;4.83;;;3.50;;
9473;SDS011;8865;47.636;7.692;2024-02-14T08:56:32;5.87;;;3.23;;
9473;SDS011;8865;47.636;7.692;2024-02-14T08:59:02;6.00;;;2.77;;
9473;SDS011;8865;47.636;7.692;2024-02-14T09:01:28;3.87;;;2.60;;
9473;SDS011;8865;47.636;7.692;2024-02-14T09:03:55;4.43;;;3.10;;
9473;SDS011;8865;47.636;7.692;2024-02-14T09:06:21;4.30;;;3.03;;
9473;SDS011;8865;47.636;7.692;2024-02-14T09:08:47;4.27;;;3.30;;
9473;SDS011;8865;47.636;7.692;2024-02-14T09:11:14;3.60;;;2.40;;
9473;SDS011;8865;47.636;7.692;2024-02-14T09:13:40;3.23;;;2.40;;
9473;SDS011;8865;47.636;7.692;2024-02-14T09:16:07;5.27;;;2.80;;
9473;SDS011;8865;47.636;7.692;2024-02-14T09:18:34;3.00;;;2.33;;
9473;SDS011;8865;47.636;7.692;2024-02-14T09:21:00;4.53;;;2.90;;
9473;SDS011;8865;47.636;7.692;2024-02-14T09:23:29;4.80;;;2.80;;
9473;SDS011;8865;47.636;7.692;2024-02-14T09:25:55;4.07;;;2.47;;
9473;SDS011;8865;47.636;7.692;2024-02-14T09:28:23;5.73;;;2.77;;
9473;SDS011;8865;47.636;7.692;2024-02-14T09:30:49;4.20;;;2.40;;
9473;SDS011;8865;47.636;7.692;2024-02-14T09:33:15;3.83;;;2.70;;
9473;SDS011;8865;47.636;7.692;2024-02-14T09:35:41;3.63;;;2.97;;
9473;SDS011;8865;47.636;7.692;2024-02-14T09:38:11;4.57;;;2.50;;
9473;SDS011;8865;47.636;7.692;2024-02-14T09:40:40;8.60;;;2.70;;
9473;SDS011;8865;47.636;7.692;2024-02-14T09:43:10;6.37;;;3.10;;
9473;SDS011;8865;47.636;7.692;2024-02-14T09:45:47;4.83;;;2.80;;
9473;SDS011;8865;47.636;7.692;2024-02-14T09:48:16;4.13;;;2.90;;
9473;SDS011;8865;47.636;7.692;2024-02-14T09:50:45;4.83;;;3.13;;
9473;SDS011;8865;47.636;7.692;2024-02-14T09:53:14;4.63;;;3.10;;
9473;SDS011;8865;47.636;7.692;2024-02-14T09:55:41;3.03;;;2.57;;
9473;SDS011;8865;47.636;7.692;2024-02-14T09:58:07;5.43;;;3.00;;
9473;SDS011;8865;47.636;7.692;2024-02-14T10:00:35;3.80;;;2.60;;
9473;SDS011;8865;47.636;7.692;2024-02-14T10:03:01;4.90;;;3.40;;
9473;SDS011;8865;47.636;7.692;2024-02-14T10:05:27;4.33;;;2.70;;
9473;SDS011;8865;47.636;7.692;2024-02-14T10:07:54;4.17;;;2.80;;
9473;SDS011;8865;47.636;7.692;2024-02-14T10:10:23;5.23;;;2.60;;
9473;SDS011;8865;47.636;7.692;2024-02-14T10:12:50;4.13;;;2.60;;
9473;SDS011;8865;47.636;7.692;2024-02-14T10:15:16;5.97;;;3.03;;
9473;SDS011;8865;47.636;7.692;2024-02-14T10:17:42;5.10;;;3.03;;
9473;SDS011;8865;47.636;7.692;2024-02-14T10:20:09;5.63;;;3.10;;
9473;SDS011;8865;47.636;7.692;2024-02-14T10:22:37;4.77;;;2.83;;
9473;SDS011;8865;47.636;7.692;2024-02-14T10:25:04;6.23;;;3.00;;
9473;SDS011;8865;47.636;7.692;2024-02-14T10:27:37;3.90;;;2.70;;
9473;SDS011;8865;47.636;7.692;2024-02-14T10:30:05;3.53;;;2.70;;
9473;SDS011;8865;47.636;7.692;2024-02-14T10:32:41;6.00;;;3.20;;
9473;SDS011;8865;47.636;7.692;2024-02-14T10:35:13;3.17;;;2.73;;
9473;SDS011;8865;47.636;7.692;2024-02-14T10:37:40;2.93;;;2.43;;
9473;SDS011;8865;47.636;7.692;2024-02-14T10:40:06;5.53;;;2.70;;
9473;SDS011;8865;47.636;7.692;2024-02-14T10:42:34;3.83;;;2.60;;
9473;SDS011;8865;47.636;7.692;2024-02-14T10:45:01;6.57;;;3.10;;
9473;SDS011;8865;47.636;7.692;2024-02-14T10:47:32;4.83;;;2.60;;
9473;SDS011;8865;47.636;7.692;2024-02-14T10:50:05;5.23;;;2.87;;
9473;SDS011;8865;47.636;7.692;2024-02-14T10:52:33;3.90;;;2.70;;
9473;SDS011;8865;47.636;7.692;2024-02-14T10:55:04;3.57;;;2.63;;
9473;SDS011;8865;47.636;7.692;2024-02-14T10:57:31;5.30;;;2.90;;
9473;SDS011;8865;47.636;7.692;2024-02-14T10:59:58;3.33;;;2.57;;
9473;SDS011;8865;47.636;7.692;2024-02-14T11:02:26;5.23;;;3.13;;
9473;SDS011;8865;47.636;7.692;2024-02-14T11:04:56;4.33;;;2.67;;
9473;SDS011;8865;47.636;7.692;2024-02-14T11:07:23;4.30;;;2.70;;
9473;SDS011;8865;47.636;7.692;2024-02-14T11:09:59;3.20;;;2.30;;
9473;SDS011;8865;47.636;7.692;2024-02-14T11:12:32;3.43;;;2.13;;
9473;SDS011;8865;47.636;7.692;2024-02-14T11:14:59;3.30;;;2.10;;
9473;SDS011;8865;47.636;7.692;2024-02-14T11:17:26;2.67;;;1.73;;
9473;SDS011;8865;47.636;7.692;2024-02-14T11:19:53;1.97;;;1.70;;
9473;SDS011;8865;47.636;7.692;2024-02-14T11:22:19;2.37;;;1.77;;
9473;SDS011;8865;47.636;7.692;2024-02-14T11:24:47;3.67;;;2.57;;
9473;SDS011;8865;47.636;7.692;2024-02-14T11:27:14;4.20;;;2.40;;
9473;SDS011;8865;47.636;7.692;2024-02-14T11:29:52;5.13;;;1.97;;
9473;SDS011;8865;47.636;7.692;2024-02-14T11:32:19;3.73;;;2.20;;
9473;SDS011;8865;47.636;7.692;2024-02-14T11:34:54;3.23;;;2.13;;
9473;SDS011;8865;47.636;7.692;2024-02-14T11:37:27;2.77;;;2.10;;
9473;SDS011;8865;47.636;7.692;2024-02-14T11:39:55;4.70;;;2.20;;
9473;SDS011;8865;47.636;7.692;2024-02-14T11:42:23;2.33;;;1.87;;
9473;SDS011;8865;47.636;7.692;2024-02-14T11:44:50;3.90;;;1.97;;
9473;SDS011;8865;47.636;7.692;2024-02-14T11:47:16;2.77;;;1.70;;
9473;SDS011;8865;47.636;7.692;2024-02-14T11:49:42;3.27;;;1.70;;
9473;SDS011;8865;47.636;7.692;2024-02-14T11:52:11;3.83;;;2.10;;
9473;SDS011;8865;47.636;7.692;2024-02-14T11:54:39;3.60;;;2.37;;
9473;SDS011;8865;47.636;7.692;2024-02-14T11:57:11;5.00;;;1.80;;
9473;SDS011;8865;47.636;7.692;2024-02-14T11:59:37;2.53;;;1.80;;
9473;SDS011;8865;47.636;7.692;2024-02-14T12:02:03;4.00;;;2.10;;
9473;SDS011;8865;47.636;7.692;2024-02-14T12:04:30;4.60;;;2.30;;
9473;SDS011;8865;47.636;7.692;2024-02-14T12:06:57;3.17;;;2.10;;
9473;SDS011;8865;47.636;7.692;2024-02-14T12:09:23;3.20;;;2.00;;
9473;SDS011;8865;47.636;7.692;2024-02-14T12:11:49;2.20;;;1.70;;
9473;SDS011;8865;47.636;7.692;2024-02-14T12:14:16;3.13;;;1.53;;
9473;SDS011;8865;47.636;7.692;2024-02-14T12:16:44;4.10;;;1.93;;
9473;SDS011;8865;47.636;7.692;2024-02-14T12:19:14;2.83;;;1.90;;
9473;SDS011;8865;47.636;7.692;2024-02-14T12:21:41;2.53;;;1.83;;
9473;SDS011;8865;47.636;7.692;2024-02-14T12:24:11;3.83;;;2.20;;
9473;SDS011;8865;47.636;7.692;2024-02-14T12:26:40;5.20;;;3.00;;
9473;SDS011;8865;47.636;7.692;2024-02-14T12:29:07;3.77;;;2.00;;
9473;SDS011;8865;47.636;7.692;2024-02-14T12:31:38;2.13;;;1.70;;
9473;SDS011;8865;47.636;7.692;2024-02-14T12:34:04;2.00;;;1.70;;
9473;SDS011;8865;47.636;7.692;2024-02-14T12:36:31;3.07;;;1.87;;
9473;SDS011;8865;47.636;7.692;2024-02-14T12:39:01;2.43;;;2.00;;
9473;SDS011;8865;47.636;7.692;2024-02-14T12:41:28;2.17;;;1.80;;
9473;SDS011;8865;47.636;7.692;2024-02-14T12:44:00;2.60;;;1.77;;
9473;SDS011;8865;47.636;7.692;2024-02-14T12:46:27;2.70;;;2.07;;
9473;SDS011;8865;47.636;7.692;2024-02-14T12:48:53;4.37;;;2.00;;
9473;SDS011;8865;47.636;7.692;2024-02-14T12:51:19;2.23;;;1.90;;
9473;SDS011;8865;47.636;7.692;2024-02-14T12:53:45;2.20;;;1.90;;
9473;SDS011;8865;47.636;7.692;2024-02-14T12:56:11;1.93;;;1.70;;
9473;SDS011;8865;47.636;7.692;2024-02-14T12:58:38;2.43;;;1.90;;
9473;SDS011;8865;47.636;7.692;2024-02-14T13:01:04;2.60;;;1.90;;
9473;SDS011;8865;47.636;7.692;2024-02-14T13:03:32;3.27;;;2.17;;
9473;SDS011;8865;47.636;7.692;2024-02-14T13:05:59;2.10;;;1.90;;
9473;SDS011;8865;47.636;7.692;2024-02-14T13:08:25;3.07;;;2.07;;
9473;SDS011;8865;47.636;7.692;2024-02-14T13:10:52;4.17;;;2.07;;
9473;SDS011;8865;47.636;7.692;2024-02-14T13:13:18;2.20;;;2.00;;
9473;SDS011;8865;47.636;7.692;2024-02-14T13:15:44;3.57;;;2.10;;
9473;SDS011;8865;47.636;7.692;2024-02-14T13:18:10;2.50;;;2.00;;
9473;SDS011;8865;47.636;7.692;2024-02-14T13:20:37;3.23;;;2.00;;
9473;SDS011;8865;47.636;7.692;2024-02-14T13:23:03;3.37;;;2.00;;
9473;SDS011;8865;47.636;7.692;2024-02-14T13:25:35;2.10;;;1.80;;
9473;SDS011;8865;47.636;7.692;2024-02-14T13:28:02;2.50;;;1.60;;
9473;SDS011;8865;47.636;7.692;2024-02-14T13:30:29;2.60;;;1.73;;
9473;SDS011;8865;47.636;7.692;2024-02-14T13:32:55;1.93;;;1.63;;
9473;SDS011;8865;47.636;7.692;2024-02-14T13:35:22;1.63;;;1.50;;
9473;SDS011;8865;47.636;7.692;2024-02-14T13:37:48;2.00;;;1.77;;
9473;SDS011;8865;47.636;7.692;2024-02-14T13:40:15;2.30;;;1.83;;
9473;SDS011;8865;47.636;7.692;2024-02-14T13:42:41;2.90;;;1.67;;
9473;SDS011;8865;47.636;7.692;2024-02-14T13:45:07;3.13;;;1.70;;
9473;SDS011;8865;47.636;7.692;2024-02-14T13:47:37;4.60;;;1.60;;
9473;SDS011;8865;47.636;7.692;2024-02-14T13:50:08;4.37;;;2.00;;
9473;SDS011;8865;47.636;7.692;2024-02-14T13:52:35;2.60;;;2.40;;
9473;SDS011;8865;47.636;7.692;2024-02-14T13:55:02;2.40;;;1.90;;
9473;SDS011;8865;47.636;7.692;2024-02-14T13:57:31;3.03;;;2.00;;
9473;SDS011;8865;47.636;7.692;2024-02-14T13:59:59;2.93;;;2.30;;
9473;SDS011;8865;47.636;7.692;2024-02-14T14:02:25;2.60;;;2.00;;
9473;SDS011;8865;47.636;7.692;2024-02-14T14:04:51;2.50;;;2.00;;
9473;SDS011;8865;47.636;7.692;2024-02-14T14:07:19;2.40;;;2.20;;
9473;SDS011;8865;47.636;7.692;2024-02-14T14:09:45;3.53;;;1.87;;
9473;SDS011;8865;47.636;7.692;2024-02-14T14:12:12;5.27;;;1.80;;
9473;SDS011;8865;47.636;7.692;2024-02-14T14:14:38;3.77;;;1.77;;
9473;SDS011;8865;47.636;7.692;2024-02-14T14:17:04;3.97;;;1.80;;
9473;SDS011;8865;47.636;7.692;2024-02-14T14:19:30;2.67;;;2.00;;
9473;SDS011;8865;47.636;7.692;2024-02-14T14:21:56;1.63;;;1.43;;
9473;SDS011;8865;47.636;7.692;2024-02-14T14:24:22;3.83;;;1.90;;
9473;SDS011;8865;47.636;7.692;2024-02-14T14:26:49;1.73;;;1.63;;
9473;SDS011;8865;47.636;7.692;2024-02-14T14:29:16;2.20;;;1.57;;
9473;SDS011;8865;47.636;7.692;2024-02-14T14:31:42;2.93;;;1.40;;
9473;SDS011;8865;47.636;7.692;2024-02-14T14:34:08;2.27;;;1.67;;
9473;SDS011;8865;47.636;7.692;2024-02-14T14:36:35;3.37;;;1.73;;
9473;SDS011;8865;47.636;7.692;2024-02-14T14:39:03;2.77;;;1.53;;
9473;SDS011;8865;47.636;7.692;2024-02-14T14:41:29;2.67;;;1.40;;
9473;SDS011;8865;47.636;7.692;2024-02-14T14:43:56;1.80;;;1.37;;
9473;SDS011;8865;47.636;7.692;2024-02-14T14:46:22;3.00;;;1.50;;
9473;SDS011;8865;47.636;7.692;2024-02-14T14:48:48;2.57;;;1.50;;
9473;SDS011;8865;47.636;7.692;2024-02-14T14:51:14;2.20;;;1.47;;
9473;SDS011;8865;47.636;7.692;2024-02-14T14:53:40;1.77;;;1.20;;
9473;SDS011;8865;47.636;7.692;2024-02-14T14:56:06;2.90;;;1.30;;
9473;SDS011;8865;47.636;7.692;2024-02-14T14:58:33;1.60;;;1.50;;
9473;SDS011;8865;47.636;7.692;2024-02-14T15:01:00;2.27;;;1.47;;
9473;SDS011;8865;47.636;7.692;2024-02-14T15:03:29;3.13;;;1.50;;
9473;SDS011;8865;47.636;7.692;2024-02-14T15:05:55;1.80;;;1.50;;
9473;SDS011;8865;47.636;7.692;2024-02-14T15:08:23;1.97;;;1.33;;
9473;SDS011;8865;47.636;7.692;2024-02-14T15:10:53;2.20;;;1.40;;
9473;SDS011;8865;47.636;7.692;2024-02-14T15:13:21;3.03;;;1.40;;